sensor_id;sensor_type;location;lat;lon;timestamp;P1;durP1;ratioP1;P2;durP2;ratioP2
24635;SDS011;12772;49.794;10.024;2023-01-23T00:03:34;8.40;;;7.28;;
24635;SDS011;12772;49.794;10.024;2023-01-23T00:07:36;7.78;;;6.97;;
24635;SDS011;12772;49.794;10.024;2023-01-23T00:11:38;7.93;;;6.47;;
24635;SDS011;12772;49.794;10.024;2023-01-23T00:15:40;7.40;;;6.38;;
24635;SDS011;12772;49.794;10.024;2023-01-23T00:19:42;8.38;;;6.88;;
24635;SDS011;12772;49.794;10.024;2023-01-23T00:23:46;7.78;;;6.32;;
24635;SDS011;12772;49.794;10.024;2023-01-23T00:27:50;8.60;;;6.93;;
24635;SDS011;12772;49.794;10.024;2023-01-23T00:31:52;8.55;;;6.72;;
24635;SDS011;12772;49.794;10.024;2023-01-23T00:35:55;9.10;;;7.20;;
24635;SDS011;12772;49.794;10.024;2023-01-23T00:39:57;7.22;;;6.47;;
24635;SDS011;12772;49.794;10.024;2023-01-23T00:43:59;7.63;;;6.63;;
24635;SDS011;12772;49.794;10.024;2023-01-23T00:48:01;7.15;;;6.43;;
24635;SDS011;12772;49.794;10.024;2023-01-23T00:52:03;7.18;;;5.97;;
24635;SDS011;12772;49.794;10.024;2023-01-23T00:56:06;7.88;;;7.00;;
24635;SDS011;12772;49.794;10.024;2023-01-23T01:00:08;7.40;;;6.15;;
24635;SDS011;12772;49.794;10.024;2023-01-23T01:04:11;9.20;;;7.28;;
24635;SDS011;12772;49.794;10.024;2023-01-23T01:08:12;7.68;;;6.22;;
24635;SDS011;12772;49.794;10.024;2023-01-23T01:12:15;8.32;;;6.60;;
24635;SDS011;12772;49.794;10.024;2023-01-23T01:16:18;7.50;;;6.60;;
24635;SDS011;12772;49.794;10.024;2023-01-23T01:20:21;7.25;;;6.32;;
24635;SDS011;12772;49.794;10.024;2023-01-23T01:24:25;8.40;;;7.18;;
24635;SDS011;12772;49.794;10.024;2023-01-23T01:28:27;7.22;;;6.22;;
24635;SDS011;12772;49.794;10.024;2023-01-23T01:32:30;6.75;;;6.00;;
24635;SDS011;12772;49.794;10.024;2023-01-23T01:36:36;7.22;;;6.35;;
24635;SDS011;12772;49.794;10.024;2023-01-23T01:40:38;6.63;;;5.97;;
24635;SDS011;12772;49.794;10.024;2023-01-23T01:44:53;7.97;;;6.60;;
24635;SDS011;12772;49.794;10.024;2023-01-23T01:53:24;6.15;;;5.45;;
24635;SDS011;12772;49.794;10.024;2023-01-23T01:57:30;6.78;;;5.80;;
24635;SDS011;12772;49.794;10.024;2023-01-23T02:01:36;8.57;;;6.25;;
24635;SDS011;12772;49.794;10.024;2023-01-23T02:05:43;8.02;;;6.50;;
24635;SDS011;12772;49.794;10.024;2023-01-23T02:09:47;6.63;;;5.65;;
24635;SDS011;12772;49.794;10.024;2023-01-23T02:13:49;8.70;;;6.20;;
24635;SDS011;12772;49.794;10.024;2023-01-23T02:17:54;7.65;;;6.00;;
24635;SDS011;12772;49.794;10.024;2023-01-23T02:22:00;6.22;;;5.63;;
24635;SDS011;12772;49.794;10.024;2023-01-23T02:26:12;5.53;;;4.90;;
24635;SDS011;12772;49.794;10.024;2023-01-23T02:30:17;6.72;;;6.00;;
24635;SDS011;12772;49.794;10.024;2023-01-23T02:34:20;6.05;;;5.40;;
24635;SDS011;12772;49.794;10.024;2023-01-23T02:38:26;6.45;;;5.50;;
24635;SDS011;12772;49.794;10.024;2023-01-23T02:42:32;7.80;;;5.97;;
24635;SDS011;12772;49.794;10.024;2023-01-23T02:46:35;5.35;;;4.82;;
24635;SDS011;12772;49.794;10.024;2023-01-23T02:50:37;8.00;;;5.45;;
24635;SDS011;12772;49.794;10.024;2023-01-23T02:54:39;7.40;;;5.90;;
24635;SDS011;12772;49.794;10.024;2023-01-23T02:58:41;7.63;;;5.40;;
24635;SDS011;12772;49.794;10.024;2023-01-23T03:03:04;6.32;;;5.68;;
24635;SDS011;12772;49.794;10.024;2023-01-23T03:07:07;6.30;;;5.18;;
24635;SDS011;12772;49.794;10.024;2023-01-23T03:11:09;6.18;;;5.40;;
24635;SDS011;12772;49.794;10.024;2023-01-23T03:15:11;5.68;;;5.07;;
24635;SDS011;12772;49.794;10.024;2023-01-23T03:19:13;5.25;;;4.75;;
24635;SDS011;12772;49.794;10.024;2023-01-23T03:23:15;5.60;;;4.93;;
24635;SDS011;12772;49.794;10.024;2023-01-23T03:27:17;5.90;;;5.30;;
24635;SDS011;12772;49.794;10.024;2023-01-23T03:31:19;5.68;;;5.05;;
24635;SDS011;12772;49.794;10.024;2023-01-23T03:35:20;5.50;;;4.63;;
24635;SDS011;12772;49.794;10.024;2023-01-23T03:39:23;5.15;;;4.65;;
24635;SDS011;12772;49.794;10.024;2023-01-23T03:43:42;5.03;;;4.53;;
24635;SDS011;12772;49.794;10.024;2023-01-23T03:47:44;5.53;;;4.97;;
24635;SDS011;12772;49.794;10.024;2023-01-23T03:51:46;5.13;;;4.55;;
24635;SDS011;12772;49.794;10.024;2023-01-23T03:55:48;5.20;;;4.55;;
24635;SDS011;12772;49.794;10.024;2023-01-23T03:59:51;6.20;;;5.30;;
24635;SDS011;12772;49.794;10.024;2023-01-23T04:03:53;5.65;;;4.57;;
24635;SDS011;12772;49.794;10.024;2023-01-23T04:07:55;5.60;;;4.90;;
24635;SDS011;12772;49.794;10.024;2023-01-23T04:11:57;4.88;;;4.38;;
24635;SDS011;12772;49.794;10.024;2023-01-23T04:15:59;4.68;;;4.28;;
24635;SDS011;12772;49.794;10.024;2023-01-23T04:20:02;8.02;;;4.13;;
24635;SDS011;12772;49.794;10.024;2023-01-23T04:24:04;4.63;;;4.03;;
24635;SDS011;12772;49.794;10.024;2023-01-23T04:28:07;6.47;;;4.47;;
24635;SDS011;12772;49.794;10.024;2023-01-23T04:32:09;5.18;;;4.63;;
24635;SDS011;12772;49.794;10.024;2023-01-23T04:36:11;4.57;;;4.18;;
24635;SDS011;12772;49.794;10.024;2023-01-23T04:40:13;4.60;;;4.20;;
24635;SDS011;12772;49.794;10.024;2023-01-23T04:44:15;4.50;;;4.10;;
24635;SDS011;12772;49.794;10.024;2023-01-23T04:48:24;4.70;;;4.30;;
24635;SDS011;12772;49.794;10.024;2023-01-23T04:52:26;4.75;;;4.25;;
24635;SDS011;12772;49.794;10.024;2023-01-23T04:56:28;5.20;;;4.70;;
24635;SDS011;12772;49.794;10.024;2023-01-23T05:00:30;4.75;;;4.28;;
24635;SDS011;12772;49.794;10.024;2023-01-23T05:04:32;4.22;;;3.83;;
24635;SDS011;12772;49.794;10.024;2023-01-23T05:08:34;5.50;;;4.70;;
24635;SDS011;12772;49.794;10.024;2023-01-23T05:12:36;5.95;;;5.35;;
24635;SDS011;12772;49.794;10.024;2023-01-23T05:16:38;5.45;;;4.78;;
24635;SDS011;12772;49.794;10.024;2023-01-23T05:20:40;5.95;;;4.80;;
24635;SDS011;12772;49.794;10.024;2023-01-23T05:24:42;5.50;;;5.00;;
24635;SDS011;12772;49.794;10.024;2023-01-23T05:28:45;5.07;;;4.18;;
24635;SDS011;12772;49.794;10.024;2023-01-23T05:32:47;5.83;;;4.80;;
24635;SDS011;12772;49.794;10.024;2023-01-23T05:36:49;5.63;;;5.05;;
24635;SDS011;12772;49.794;10.024;2023-01-23T05:40:51;5.15;;;4.55;;
24635;SDS011;12772;49.794;10.024;2023-01-23T05:44:53;5.53;;;4.70;;
24635;SDS011;12772;49.794;10.024;2023-01-23T05:48:55;5.47;;;4.97;;
24635;SDS011;12772;49.794;10.024;2023-01-23T05:52:57;6.28;;;4.72;;
24635;SDS011;12772;49.794;10.024;2023-01-23T05:56:59;6.00;;;5.25;;
24635;SDS011;12772;49.794;10.024;2023-01-23T06:01:02;5.85;;;5.25;;
24635;SDS011;12772;49.794;10.024;2023-01-23T06:05:04;6.93;;;5.75;;
24635;SDS011;12772;49.794;10.024;2023-01-23T06:09:07;7.80;;;5.88;;
24635;SDS011;12772;49.794;10.024;2023-01-23T06:13:09;7.93;;;5.82;;
24635;SDS011;12772;49.794;10.024;2023-01-23T06:17:11;10.25;;;6.53;;
24635;SDS011;12772;49.794;10.024;2023-01-23T06:21:14;8.32;;;6.25;;
24635;SDS011;12772;49.794;10.024;2023-01-23T06:25:17;6.93;;;5.68;;
24635;SDS011;12772;49.794;10.024;2023-01-23T06:29:21;6.45;;;5.82;;
24635;SDS011;12772;49.794;10.024;2023-01-23T06:33:23;6.93;;;5.68;;
24635;SDS011;12772;49.794;10.024;2023-01-23T06:37:25;7.97;;;6.55;;
24635;SDS011;12772;49.794;10.024;2023-01-23T06:41:27;8.95;;;6.45;;
24635;SDS011;12772;49.794;10.024;2023-01-23T06:45:29;6.50;;;5.72;;
24635;SDS011;12772;49.794;10.024;2023-01-23T06:49:31;6.80;;;6.18;;
24635;SDS011;12772;49.794;10.024;2023-01-23T06:53:33;6.10;;;5.50;;
24635;SDS011;12772;49.794;10.024;2023-01-23T06:57:36;6.97;;;5.60;;
24635;SDS011;12772;49.794;10.024;2023-01-23T07:01:38;7.60;;;5.82;;
24635;SDS011;12772;49.794;10.024;2023-01-23T07:05:40;6.68;;;5.78;;
24635;SDS011;12772;49.794;10.024;2023-01-23T07:09:42;6.22;;;5.63;;
24635;SDS011;12772;49.794;10.024;2023-01-23T07:13:45;10.50;;;6.57;;
24635;SDS011;12772;49.794;10.024;2023-01-23T07:17:47;6.68;;;5.68;;
24635;SDS011;12772;49.794;10.024;2023-01-23T07:21:50;7.65;;;6.10;;
24635;SDS011;12772;49.794;10.024;2023-01-23T07:25:57;7.53;;;6.25;;
24635;SDS011;12772;49.794;10.024;2023-01-23T07:30:03;7.43;;;6.55;;
24635;SDS011;12772;49.794;10.024;2023-01-23T07:34:05;6.65;;;5.90;;
24635;SDS011;12772;49.794;10.024;2023-01-23T07:38:07;8.57;;;6.70;;
24635;SDS011;12772;49.794;10.024;2023-01-23T07:42:09;7.00;;;6.30;;
24635;SDS011;12772;49.794;10.024;2023-01-23T07:46:12;7.78;;;6.20;;
24635;SDS011;12772;49.794;10.024;2023-01-23T07:50:14;7.28;;;5.93;;
24635;SDS011;12772;49.794;10.024;2023-01-23T07:54:16;8.20;;;6.53;;
24635;SDS011;12772;49.794;10.024;2023-01-23T07:58:18;6.75;;;6.05;;
24635;SDS011;12772;49.794;10.024;2023-01-23T08:02:20;9.13;;;7.20;;
24635;SDS011;12772;49.794;10.024;2023-01-23T08:06:22;8.00;;;7.20;;
24635;SDS011;12772;49.794;10.024;2023-01-23T08:10:24;7.55;;;6.63;;
24635;SDS011;12772;49.794;10.024;2023-01-23T08:14:26;7.20;;;6.50;;
24635;SDS011;12772;49.794;10.024;2023-01-23T08:18:29;7.90;;;7.00;;
24635;SDS011;12772;49.794;10.024;2023-01-23T08:22:31;10.57;;;7.75;;
24635;SDS011;12772;49.794;10.024;2023-01-23T08:26:34;9.10;;;7.18;;
24635;SDS011;12772;49.794;10.024;2023-01-23T08:30:36;6.85;;;5.82;;
24635;SDS011;12772;49.794;10.024;2023-01-23T08:34:38;8.63;;;7.28;;
24635;SDS011;12772;49.794;10.024;2023-01-23T08:38:40;8.47;;;7.20;;
24635;SDS011;12772;49.794;10.024;2023-01-23T08:42:42;8.48;;;7.22;;
24635;SDS011;12772;49.794;10.024;2023-01-23T08:46:44;8.65;;;7.32;;
24635;SDS011;12772;49.794;10.024;2023-01-23T08:50:47;8.75;;;7.85;;
24635;SDS011;12772;49.794;10.024;2023-01-23T08:54:49;9.82;;;8.45;;
24635;SDS011;12772;49.794;10.024;2023-01-23T08:58:51;9.73;;;7.07;;
24635;SDS011;12772;49.794;10.024;2023-01-23T09:02:53;9.70;;;7.60;;
24635;SDS011;12772;49.794;10.024;2023-01-23T09:06:55;8.63;;;7.18;;
24635;SDS011;12772;49.794;10.024;2023-01-23T09:11:00;8.13;;;6.85;;
24635;SDS011;12772;49.794;10.024;2023-01-23T09:15:04;8.38;;;6.65;;
24635;SDS011;12772;49.794;10.024;2023-01-23T09:19:06;9.27;;;8.13;;
24635;SDS011;12772;49.794;10.024;2023-01-23T09:23:09;8.13;;;7.10;;
24635;SDS011;12772;49.794;10.024;2023-01-23T09:27:11;8.52;;;7.18;;
24635;SDS011;12772;49.794;10.024;2023-01-23T09:31:14;8.35;;;6.93;;
24635;SDS011;12772;49.794;10.024;2023-01-23T09:35:16;10.70;;;8.35;;
24635;SDS011;12772;49.794;10.024;2023-01-23T09:39:18;6.95;;;5.90;;
24635;SDS011;12772;49.794;10.024;2023-01-23T09:43:22;8.73;;;6.70;;
24635;SDS011;12772;49.794;10.024;2023-01-23T09:47:46;8.38;;;7.53;;
24635;SDS011;12772;49.794;10.024;2023-01-23T09:52:02;9.10;;;6.35;;
24635;SDS011;12772;49.794;10.024;2023-01-23T10:00:30;8.73;;;6.13;;
24635;SDS011;12772;49.794;10.024;2023-01-23T10:04:33;8.20;;;6.72;;
24635;SDS011;12772;49.794;10.024;2023-01-23T10:12:57;9.00;;;6.75;;
24635;SDS011;12772;49.794;10.024;2023-01-23T10:17:29;10.95;;;7.80;;
24635;SDS011;12772;49.794;10.024;2023-01-23T10:26:15;10.25;;;8.13;;
24635;SDS011;12772;49.794;10.024;2023-01-23T10:34:37;9.75;;;7.88;;
24635;SDS011;12772;49.794;10.024;2023-01-23T10:38:45;12.52;;;8.20;;
24635;SDS011;12772;49.794;10.024;2023-01-23T10:42:53;10.10;;;8.30;;
24635;SDS011;12772;49.794;10.024;2023-01-23T10:46:56;9.50;;;8.50;;
24635;SDS011;12772;49.794;10.024;2023-01-23T10:51:03;9.55;;;8.25;;
24635;SDS011;12772;49.794;10.024;2023-01-23T11:03:34;10.52;;;8.05;;
24635;SDS011;12772;49.794;10.024;2023-01-23T11:07:36;10.02;;;8.00;;
24635;SDS011;12772;49.794;10.024;2023-01-23T11:11:39;8.02;;;7.22;;
24635;SDS011;12772;49.794;10.024;2023-01-23T11:15:41;9.73;;;8.48;;
24635;SDS011;12772;49.794;10.024;2023-01-23T11:19:49;8.18;;;7.28;;
24635;SDS011;12772;49.794;10.024;2023-01-23T11:24:11;10.35;;;8.38;;
24635;SDS011;12772;49.794;10.024;2023-01-23T11:32:26;9.10;;;7.30;;
24635;SDS011;12772;49.794;10.024;2023-01-23T11:41:02;9.82;;;7.85;;
24635;SDS011;12772;49.794;10.024;2023-01-23T11:53:35;9.18;;;7.93;;
24635;SDS011;12772;49.794;10.024;2023-01-23T12:02:16;8.60;;;7.47;;
24635;SDS011;12772;49.794;10.024;2023-01-23T12:11:13;12.20;;;7.82;;
24635;SDS011;12772;49.794;10.024;2023-01-23T12:19:58;9.93;;;7.90;;
24635;SDS011;12772;49.794;10.024;2023-01-23T12:33:20;8.63;;;7.40;;
24635;SDS011;12772;49.794;10.024;2023-01-23T12:37:52;7.90;;;7.10;;
24635;SDS011;12772;49.794;10.024;2023-01-23T12:42:05;9.00;;;7.78;;
24635;SDS011;12772;49.794;10.024;2023-01-23T12:46:14;8.27;;;7.43;;
24635;SDS011;12772;49.794;10.024;2023-01-23T12:54:50;12.95;;;7.57;;
24635;SDS011;12772;49.794;10.024;2023-01-23T12:59:04;11.20;;;8.50;;
24635;SDS011;12772;49.794;10.024;2023-01-23T13:03:26;7.95;;;7.05;;
24635;SDS011;12772;49.794;10.024;2023-01-23T13:07:41;13.20;;;9.35;;
24635;SDS011;12772;49.794;10.024;2023-01-23T13:12:06;9.93;;;8.52;;
24635;SDS011;12772;49.794;10.024;2023-01-23T13:16:26;8.95;;;7.72;;
24635;SDS011;12772;49.794;10.024;2023-01-23T13:20:31;11.93;;;9.60;;
24635;SDS011;12772;49.794;10.024;2023-01-23T13:24:52;13.43;;;10.15;;
24635;SDS011;12772;49.794;10.024;2023-01-23T13:29:43;15.20;;;10.90;;
24635;SDS011;12772;49.794;10.024;2023-01-23T13:33:50;15.43;;;11.15;;
24635;SDS011;12772;49.794;10.024;2023-01-23T13:37:53;15.35;;;11.13;;
24635;SDS011;12772;49.794;10.024;2023-01-23T13:46:25;9.20;;;7.75;;
24635;SDS011;12772;49.794;10.024;2023-01-23T13:50:35;7.53;;;6.82;;
24635;SDS011;12772;49.794;10.024;2023-01-23T13:54:42;6.90;;;6.20;;
24635;SDS011;12772;49.794;10.024;2023-01-23T13:59:02;7.15;;;5.82;;
24635;SDS011;12772;49.794;10.024;2023-01-23T14:07:32;5.88;;;5.28;;
24635;SDS011;12772;49.794;10.024;2023-01-23T14:11:43;6.05;;;5.45;;
24635;SDS011;12772;49.794;10.024;2023-01-23T14:15:49;6.00;;;5.40;;
24635;SDS011;12772;49.794;10.024;2023-01-23T14:20:15;5.53;;;5.00;;
24635;SDS011;12772;49.794;10.024;2023-01-23T14:28:24;5.57;;;5.00;;
24635;SDS011;12772;49.794;10.024;2023-01-23T14:32:28;6.68;;;5.30;;
24635;SDS011;12772;49.794;10.024;2023-01-23T14:36:33;6.00;;;5.40;;
24635;SDS011;12772;49.794;10.024;2023-01-23T14:40:36;5.18;;;4.68;;
24635;SDS011;12772;49.794;10.024;2023-01-23T14:44:44;5.82;;;4.40;;
24635;SDS011;12772;49.794;10.024;2023-01-23T14:48:48;5.30;;;4.80;;
24635;SDS011;12772;49.794;10.024;2023-01-23T14:53:00;5.00;;;4.43;;
24635;SDS011;12772;49.794;10.024;2023-01-23T14:57:04;4.93;;;4.35;;
24635;SDS011;12772;49.794;10.024;2023-01-23T15:01:09;5.03;;;4.53;;
24635;SDS011;12772;49.794;10.024;2023-01-23T15:09:15;5.50;;;4.97;;
24635;SDS011;12772;49.794;10.024;2023-01-23T15:13:21;5.32;;;4.82;;
24635;SDS011;12772;49.794;10.024;2023-01-23T15:17:26;5.63;;;4.60;;
24635;SDS011;12772;49.794;10.024;2023-01-23T15:21:38;5.47;;;4.97;;
24635;SDS011;12772;49.794;10.024;2023-01-23T15:25:41;4.97;;;4.47;;
24635;SDS011;12772;49.794;10.024;2023-01-23T15:29:43;5.07;;;4.68;;
24635;SDS011;12772;49.794;10.024;2023-01-23T15:33:45;4.97;;;4.57;;
24635;SDS011;12772;49.794;10.024;2023-01-23T15:37:47;4.93;;;4.53;;
24635;SDS011;12772;49.794;10.024;2023-01-23T15:41:57;4.93;;;4.53;;
24635;SDS011;12772;49.794;10.024;2023-01-23T15:46:11;4.78;;;4.38;;
24635;SDS011;12772;49.794;10.024;2023-01-23T15:50:13;4.65;;;4.25;;
24635;SDS011;12772;49.794;10.024;2023-01-23T15:54:18;5.03;;;4.55;;
24635;SDS011;12772;49.794;10.024;2023-01-23T15:58:24;5.07;;;4.57;;
24635;SDS011;12772;49.794;10.024;2023-01-23T16:02:26;8.10;;;4.72;;
24635;SDS011;12772;49.794;10.024;2023-01-23T16:06:28;5.50;;;4.65;;
24635;SDS011;12772;49.794;10.024;2023-01-23T16:10:39;5.15;;;4.65;;
24635;SDS011;12772;49.794;10.024;2023-01-23T16:14:42;6.35;;;4.50;;
24635;SDS011;12772;49.794;10.024;2023-01-23T16:18:44;5.22;;;4.57;;
24635;SDS011;12772;49.794;10.024;2023-01-23T16:22:48;5.97;;;4.93;;
24635;SDS011;12772;49.794;10.024;2023-01-23T16:26:52;5.68;;;5.18;;
24635;SDS011;12772;49.794;10.024;2023-01-23T16:30:55;6.75;;;5.80;;
24635;SDS011;12772;49.794;10.024;2023-01-23T16:34:57;6.18;;;5.40;;
24635;SDS011;12772;49.794;10.024;2023-01-23T16:38:59;5.82;;;5.22;;
24635;SDS011;12772;49.794;10.024;2023-01-23T16:43:01;6.70;;;5.30;;
24635;SDS011;12772;49.794;10.024;2023-01-23T16:47:06;6.28;;;5.38;;
24635;SDS011;12772;49.794;10.024;2023-01-23T16:55:19;4.95;;;4.45;;
24635;SDS011;12772;49.794;10.024;2023-01-23T16:59:30;6.50;;;5.82;;
24635;SDS011;12772;49.794;10.024;2023-01-23T17:03:36;8.15;;;7.03;;
24635;SDS011;12772;49.794;10.024;2023-01-23T17:07:41;12.88;;;11.10;;
24635;SDS011;12772;49.794;10.024;2023-01-23T17:11:45;11.38;;;8.82;;
24635;SDS011;12772;49.794;10.024;2023-01-23T17:15:52;10.90;;;9.10;;
24635;SDS011;12772;49.794;10.024;2023-01-23T17:19:56;10.75;;;8.48;;
24635;SDS011;12772;49.794;10.024;2023-01-23T17:24:00;10.25;;;8.45;;
24635;SDS011;12772;49.794;10.024;2023-01-23T17:28:02;7.20;;;6.28;;
24635;SDS011;12772;49.794;10.024;2023-01-23T17:32:05;7.40;;;6.43;;
24635;SDS011;12772;49.794;10.024;2023-01-23T17:36:07;6.50;;;5.75;;
24635;SDS011;12772;49.794;10.024;2023-01-23T17:40:11;6.45;;;5.43;;
24635;SDS011;12772;49.794;10.024;2023-01-23T17:44:14;6.78;;;6.03;;
24635;SDS011;12772;49.794;10.024;2023-01-23T17:48:18;7.18;;;6.32;;
24635;SDS011;12772;49.794;10.024;2023-01-23T17:52:29;6.90;;;6.05;;
24635;SDS011;12772;49.794;10.024;2023-01-23T17:56:31;7.78;;;6.32;;
24635;SDS011;12772;49.794;10.024;2023-01-23T18:00:36;7.45;;;6.13;;
24635;SDS011;12772;49.794;10.024;2023-01-23T18:04:39;7.40;;;6.57;;
24635;SDS011;12772;49.794;10.024;2023-01-23T18:08:41;6.90;;;6.20;;
24635;SDS011;12772;49.794;10.024;2023-01-23T18:12:46;9.63;;;7.53;;
24635;SDS011;12772;49.794;10.024;2023-01-23T18:16:58;10.45;;;6.97;;
24635;SDS011;12772;49.794;10.024;2023-01-23T18:21:00;8.88;;;7.30;;
24635;SDS011;12772;49.794;10.024;2023-01-23T18:25:04;9.60;;;7.32;;
24635;SDS011;12772;49.794;10.024;2023-01-23T18:29:21;8.32;;;7.22;;
24635;SDS011;12772;49.794;10.024;2023-01-23T18:33:46;8.40;;;7.05;;
24635;SDS011;12772;49.794;10.024;2023-01-23T18:42:20;9.15;;;7.10;;
24635;SDS011;12772;49.794;10.024;2023-01-23T18:46:26;9.40;;;7.10;;
24635;SDS011;12772;49.794;10.024;2023-01-23T18:50:28;9.60;;;6.78;;
24635;SDS011;12772;49.794;10.024;2023-01-23T18:58:52;9.50;;;7.00;;
24635;SDS011;12772;49.794;10.024;2023-01-23T19:03:09;7.18;;;6.15;;
24635;SDS011;12772;49.794;10.024;2023-01-23T19:07:16;9.00;;;7.18;;
24635;SDS011;12772;49.794;10.024;2023-01-23T19:15:45;10.07;;;7.32;;
24635;SDS011;12772;49.794;10.024;2023-01-23T19:19:54;8.55;;;6.93;;
24635;SDS011;12772;49.794;10.024;2023-01-23T19:24:05;8.38;;;6.72;;
24635;SDS011;12772;49.794;10.024;2023-01-23T19:28:08;8.23;;;6.50;;
24635;SDS011;12772;49.794;10.024;2023-01-23T19:32:10;10.43;;;7.20;;
24635;SDS011;12772;49.794;10.024;2023-01-23T19:36:13;8.95;;;6.95;;
24635;SDS011;12772;49.794;10.024;2023-01-23T19:40:15;9.02;;;6.70;;
24635;SDS011;12772;49.794;10.024;2023-01-23T19:44:18;9.48;;;7.75;;
24635;SDS011;12772;49.794;10.024;2023-01-23T19:48:23;8.23;;;6.75;;
24635;SDS011;12772;49.794;10.024;2023-01-23T19:52:25;9.63;;;7.45;;
24635;SDS011;12772;49.794;10.024;2023-01-23T19:56:27;9.85;;;7.90;;
24635;SDS011;12772;49.794;10.024;2023-01-23T20:00:30;9.60;;;7.95;;
24635;SDS011;12772;49.794;10.024;2023-01-23T20:04:34;9.13;;;7.50;;
24635;SDS011;12772;49.794;10.024;2023-01-23T20:08:36;10.73;;;7.82;;
24635;SDS011;12772;49.794;10.024;2023-01-23T20:12:39;9.30;;;7.55;;
24635;SDS011;12772;49.794;10.024;2023-01-23T20:16:42;9.45;;;7.40;;
24635;SDS011;12772;49.794;10.024;2023-01-23T20:20:44;11.32;;;7.95;;
24635;SDS011;12772;49.794;10.024;2023-01-23T20:24:46;9.20;;;7.70;;
24635;SDS011;12772;49.794;10.024;2023-01-23T20:28:48;12.60;;;8.55;;
24635;SDS011;12772;49.794;10.024;2023-01-23T20:32:52;10.48;;;8.65;;
24635;SDS011;12772;49.794;10.024;2023-01-23T20:36:54;9.52;;;7.53;;
24635;SDS011;12772;49.794;10.024;2023-01-23T20:41:03;11.20;;;8.55;;
24635;SDS011;12772;49.794;10.024;2023-01-23T20:45:06;11.13;;;8.18;;
24635;SDS011;12772;49.794;10.024;2023-01-23T20:49:10;11.95;;;8.70;;
24635;SDS011;12772;49.794;10.024;2023-01-23T20:53:14;11.15;;;8.15;;
24635;SDS011;12772;49.794;10.024;2023-01-23T20:57:31;15.80;;;10.60;;
24635;SDS011;12772;49.794;10.024;2023-01-23T21:01:47;12.48;;;9.43;;
24635;SDS011;12772;49.794;10.024;2023-01-23T21:06:07;10.43;;;8.35;;
24635;SDS011;12772;49.794;10.024;2023-01-23T21:10:11;9.65;;;7.93;;
24635;SDS011;12772;49.794;10.024;2023-01-23T21:14:13;13.07;;;9.15;;
24635;SDS011;12772;49.794;10.024;2023-01-23T21:18:15;10.35;;;7.10;;
24635;SDS011;12772;49.794;10.024;2023-01-23T21:22:17;12.60;;;8.90;;
24635;SDS011;12772;49.794;10.024;2023-01-23T21:26:22;9.13;;;7.30;;
24635;SDS011;12772;49.794;10.024;2023-01-23T21:30:25;11.25;;;8.35;;
24635;SDS011;12772;49.794;10.024;2023-01-23T21:34:27;9.85;;;7.60;;
24635;SDS011;12772;49.794;10.024;2023-01-23T21:38:30;12.82;;;8.38;;
24635;SDS011;12772;49.794;10.024;2023-01-23T21:42:32;12.32;;;9.63;;
24635;SDS011;12772;49.794;10.024;2023-01-23T21:46:34;13.25;;;9.43;;
24635;SDS011;12772;49.794;10.024;2023-01-23T21:50:37;15.18;;;9.18;;
24635;SDS011;12772;49.794;10.024;2023-01-23T21:54:39;10.05;;;7.88;;
24635;SDS011;12772;49.794;10.024;2023-01-23T21:58:42;7.85;;;7.00;;
24635;SDS011;12772;49.794;10.024;2023-01-23T22:02:46;10.32;;;7.72;;
24635;SDS011;12772;49.794;10.024;2023-01-23T22:06:54;10.52;;;7.65;;
24635;SDS011;12772;49.794;10.024;2023-01-23T22:10:57;9.63;;;7.28;;
24635;SDS011;12772;49.794;10.024;2023-01-23T22:15:00;9.90;;;7.53;;
24635;SDS011;12772;49.794;10.024;2023-01-23T22:19:02;9.82;;;7.90;;
24635;SDS011;12772;49.794;10.024;2023-01-23T22:23:04;8.30;;;7.40;;
24635;SDS011;12772;49.794;10.024;2023-01-23T22:27:06;9.38;;;8.00;;
24635;SDS011;12772;49.794;10.024;2023-01-23T22:31:09;8.68;;;7.43;;
24635;SDS011;12772;49.794;10.024;2023-01-23T22:35:13;10.85;;;8.13;;
24635;SDS011;12772;49.794;10.024;2023-01-23T22:39:15;9.50;;;7.75;;
24635;SDS011;12772;49.794;10.024;2023-01-23T22:43:19;10.45;;;7.28;;
24635;SDS011;12772;49.794;10.024;2023-01-23T22:47:21;12.63;;;8.32;;
24635;SDS011;12772;49.794;10.024;2023-01-23T22:51:24;11.00;;;7.75;;
24635;SDS011;12772;49.794;10.024;2023-01-23T22:55:27;10.68;;;7.85;;
24635;SDS011;12772;49.794;10.024;2023-01-23T22:59:29;9.23;;;7.95;;
24635;SDS011;12772;49.794;10.024;2023-01-23T23:03:32;9.23;;;7.53;;
24635;SDS011;12772;49.794;10.024;2023-01-23T23:07:34;10.07;;;7.05;;
24635;SDS011;12772;49.794;10.024;2023-01-23T23:11:37;7.72;;;6.90;;
24635;SDS011;12772;49.794;10.024;2023-01-23T23:15:39;7.63;;;6.57;;
24635;SDS011;12772;49.794;10.024;2023-01-23T23:19:41;9.18;;;6.93;;
24635;SDS011;12772;49.794;10.024;2023-01-23T23:23:44;9.13;;;7.35;;
24635;SDS011;12772;49.794;10.024;2023-01-23T23:27:46;9.75;;;7.88;;
24635;SDS011;12772;49.794;10.024;2023-01-23T23:31:48;9.35;;;7.45;;
24635;SDS011;12772;49.794;10.024;2023-01-23T23:35:51;9.95;;;7.13;;
24635;SDS011;12772;49.794;10.024;2023-01-23T23:39:54;8.57;;;6.97;;
24635;SDS011;12772;49.794;10.024;2023-01-23T23:43:56;8.48;;;7.10;;
24635;SDS011;12772;49.794;10.024;2023-01-23T23:47:58;8.55;;;6.70;;
24635;SDS011;12772;49.794;10.024;2023-01-23T23:52:01;8.35;;;6.75;;
24635;SDS011;12772;49.794;10.024;2023-01-23T23:56:04;7.32;;;6.07;;
